createdAt,value
2019-05-19T00:00:45.971Z,94969.37
2019-05-19T00:03:12.102Z,94963.90
2019-05-19T00:05:38.319Z,94969.94
2019-05-19T00:08:04.492Z,94972.53
2019-05-19T00:10:30.683Z,94968.76
2019-05-19T00:12:56.881Z,94971.53
2019-05-19T00:15:23.204Z,94969.52
2019-05-19T00:17:49.288Z,94968.25
2019-05-19T00:20:15.687Z,94968.07
2019-05-19T00:22:41.930Z,94965.98
2019-05-19T00:25:08.484Z,94968.67
2019-05-19T00:27:38.618Z,94960.72
2019-05-19T00:30:06.851Z,94956.89
2019-05-19T00:32:33.045Z,94961.15
2019-05-19T00:34:59.220Z,94960.06
2019-05-19T00:37:25.331Z,94958.36
2019-05-19T00:39:51.531Z,94952.84
2019-05-19T00:42:17.653Z,94955.64
2019-05-19T00:44:43.871Z,94956.06
2019-05-19T00:47:10.278Z,94959.85
2019-05-19T00:49:41.421Z,94957.53
2019-05-19T00:52:04.698Z,94958.96
2019-05-19T00:54:31.017Z,94952.95
2019-05-19T00:56:57.479Z,94958.65
2019-05-19T00:59:24.690Z,94955.83
2019-05-19T01:01:50.953Z,94952.97
2019-05-19T01:04:17.603Z,94955.45
2019-05-19T01:06:43.869Z,94954.75
2019-05-19T01:09:10.242Z,94954.64
2019-05-19T01:11:36.473Z,94955.80
2019-05-19T01:14:03.193Z,94967.53
2019-05-19T01:16:29.285Z,94956.71
2019-05-19T01:18:55.484Z,94957.54
2019-05-19T01:21:22.580Z,94958.69
2019-05-19T01:23:48.886Z,94955.63
2019-05-19T01:26:14.980Z,94956.66
2019-05-19T01:28:41.184Z,94956.23
2019-05-19T01:31:07.327Z,94951.34
2019-05-19T01:33:33.693Z,94948.06
2019-05-19T01:35:59.888Z,94949.52
2019-05-19T01:38:25.967Z,94954.20
2019-05-19T01:40:52.176Z,94949.51
2019-05-19T01:43:18.338Z,94950.12
2019-05-19T01:45:45.160Z,94953.51
2019-05-19T01:48:11.418Z,94950.86
2019-05-19T01:50:37.611Z,94952.30
2019-05-19T01:53:04.809Z,94950.55
2019-05-19T01:55:31.010Z,94955.56
2019-05-19T01:57:57.163Z,94952.78
2019-05-19T02:00:24.773Z,94951.45
2019-05-19T02:02:51.033Z,94954.44
2019-05-19T02:05:17.680Z,94957.38
2019-05-19T02:07:43.943Z,94956.98
2019-05-19T02:10:10.651Z,94951.97
2019-05-19T02:12:36.747Z,94952.59
2019-05-19T02:15:04.720Z,94953.39
2019-05-19T02:17:30.941Z,94959.44
2019-05-19T02:19:58.119Z,94954.92
2019-05-19T02:22:24.210Z,94954.13
2019-05-19T02:24:51.529Z,94956.36
2019-05-19T02:27:18.798Z,94949.31
2019-05-19T02:29:45.072Z,94952.79
2019-05-19T02:32:11.272Z,94943.61
2019-05-19T02:34:37.378Z,94951.45
2019-05-19T02:37:06.859Z,94940.25
2019-05-19T02:39:33.024Z,94940.32
2019-05-19T02:42:02.642Z,94936.55
2019-05-19T02:44:32.243Z,94937.58
2019-05-19T02:47:00.354Z,94939.60
2019-05-19T02:49:28.858Z,94943.28
2019-05-19T02:51:57.558Z,94942.98
2019-05-19T02:54:24.895Z,94947.16
2019-05-19T02:56:51.699Z,94943.06
2019-05-19T02:59:20.007Z,94940.94
2019-05-19T03:02:03.267Z,94936.84
2019-05-19T03:04:30.291Z,94941.02
2019-05-19T03:06:56.491Z,94946.84
2019-05-19T03:09:22.655Z,94941.95
2019-05-19T03:11:49.054Z,94947.05
2019-05-19T03:14:15.275Z,94940.09
2019-05-19T03:16:41.600Z,94935.62
2019-05-19T03:19:07.864Z,94946.02
2019-05-19T03:21:34.012Z,94948.05
2019-05-19T03:24:00.199Z,94944.27
2019-05-19T03:26:26.329Z,94938.38
2019-05-19T03:28:52.538Z,94945.00
2019-05-19T03:31:23.561Z,94951.80
2019-05-19T03:33:51.597Z,94950.59
2019-05-19T03:36:17.766Z,94949.55
2019-05-19T03:38:43.909Z,94948.22
2019-05-19T03:41:10.044Z,94951.57
2019-05-19T03:43:36.243Z,94943.32
2019-05-19T03:46:02.519Z,94943.52
2019-05-19T03:48:28.745Z,94938.52
2019-05-19T03:50:54.882Z,94935.07
2019-05-19T03:53:21.064Z,94940.37
2019-05-19T03:55:47.265Z,94936.39
2019-05-19T03:58:13.512Z,94938.22
2019-05-19T04:00:39.764Z,94939.84
2019-05-19T04:03:05.898Z,94940.47
2019-05-19T04:05:32.098Z,94937.91
2019-05-19T04:07:58.193Z,94935.06
2019-05-19T04:10:24.358Z,94932.71
2019-05-19T04:12:50.494Z,94934.49
2019-05-19T04:15:16.916Z,94943.16
2019-05-19T04:17:43.114Z,94940.61
2019-05-19T04:20:09.391Z,94935.64
2019-05-19T04:22:36.689Z,94932.05
2019-05-19T04:25:04.680Z,94934.63
2019-05-19T04:27:30.863Z,94936.97
2019-05-19T04:29:56.960Z,94932.29
2019-05-19T04:32:23.150Z,94931.76
2019-05-19T04:34:49.229Z,94929.33
2019-05-19T04:37:15.430Z,94928.72
2019-05-19T04:39:41.593Z,94935.03
2019-05-19T04:42:07.830Z,94937.80
2019-05-19T04:44:34.021Z,94931.27
2019-05-19T04:47:00.128Z,94939.94
2019-05-19T04:49:26.316Z,94945.95
2019-05-19T04:52:06.113Z,94935.23
2019-05-19T04:54:21.580Z,94934.83
2019-05-19T04:56:47.670Z,94938.69
2019-05-19T04:59:13.860Z,94939.40
2019-05-19T05:01:39.955Z,94938.98
2019-05-19T05:04:06.154Z,94937.87
2019-05-19T05:06:32.390Z,94948.90
2019-05-19T05:08:58.601Z,94946.63
2019-05-19T05:11:24.752Z,94947.86
2019-05-19T05:13:50.986Z,94942.64
2019-05-19T05:16:17.275Z,94945.59
2019-05-19T05:18:43.381Z,94946.21
2019-05-19T05:21:09.576Z,94940.08
2019-05-19T05:23:35.670Z,94943.47
2019-05-19T05:26:01.862Z,94943.97
2019-05-19T05:28:27.942Z,94945.00
2019-05-19T05:30:54.170Z,94933.86
2019-05-19T05:33:20.371Z,94935.39
2019-05-19T05:35:46.513Z,94937.92
2019-05-19T05:38:12.728Z,94930.66
2019-05-19T05:40:38.823Z,94933.52
2019-05-19T05:43:05.078Z,94937.49
2019-05-19T05:45:31.234Z,94937.08
2019-05-19T05:47:57.418Z,94933.88
2019-05-19T05:50:23.559Z,94937.66
2019-05-19T05:52:49.720Z,94940.85
2019-05-19T05:55:16.026Z,94943.27
2019-05-19T05:57:42.266Z,94937.24
2019-05-19T06:00:09.176Z,94939.67
2019-05-19T06:02:35.381Z,94942.41
2019-05-19T06:05:01.838Z,94942.32
2019-05-19T06:07:27.914Z,94940.28
2019-05-19T06:09:54.132Z,94937.69
2019-05-19T06:12:20.223Z,94945.72
2019-05-19T06:14:47.542Z,94946.50
2019-05-19T06:17:13.665Z,94947.72
2019-05-19T06:19:39.872Z,94947.67
2019-05-19T06:22:05.964Z,94943.37
2019-05-19T06:24:32.171Z,94942.70
2019-05-19T06:26:58.294Z,94948.59
2019-05-19T06:29:24.442Z,94949.36
2019-05-19T06:31:50.727Z,94956.77
2019-05-19T06:34:16.808Z,94954.16
2019-05-19T06:36:43.034Z,94947.69
2019-05-19T06:39:09.134Z,94955.70
2019-05-19T06:41:35.339Z,94963.36
2019-05-19T06:44:03.430Z,94945.88
2019-05-19T06:46:29.725Z,94942.76
2019-05-19T06:48:55.903Z,94952.31
2019-05-19T06:51:22.165Z,94948.17
2019-05-19T06:53:48.423Z,94951.23
2019-05-19T06:56:14.933Z,94948.43
2019-05-19T06:58:41.179Z,94943.04
2019-05-19T07:01:07.330Z,94947.77
2019-05-19T07:03:33.522Z,94945.67
2019-05-19T07:05:59.876Z,94948.05
2019-05-19T07:08:26.106Z,94948.88
2019-05-19T07:10:52.361Z,94943.44
2019-05-19T07:13:18.578Z,94948.64
2019-05-19T07:15:44.663Z,94947.65
2019-05-19T07:18:10.884Z,94939.86
2019-05-19T07:20:37.059Z,94937.97
2019-05-19T07:23:03.639Z,94939.13
2019-05-19T07:25:30.946Z,94942.00
2019-05-19T07:27:57.150Z,94944.11
2019-05-19T07:30:23.222Z,94940.76
2019-05-19T07:32:49.402Z,94935.62
2019-05-19T07:35:15.545Z,94940.31
2019-05-19T07:37:41.739Z,94931.16
2019-05-19T07:40:08.187Z,94936.14
2019-05-19T07:42:34.628Z,94921.59
2019-05-19T07:45:00.900Z,94916.72
2019-05-19T07:47:27.146Z,94920.08
2019-05-19T07:49:53.392Z,94915.78
2019-05-19T07:52:19.632Z,94913.75
2019-05-19T07:54:45.846Z,94914.81
2019-05-19T07:57:12.021Z,94910.50
2019-05-19T07:59:38.271Z,94917.66
2019-05-19T08:02:04.562Z,94914.09
2019-05-19T08:04:31.894Z,94915.58
2019-05-19T08:06:58.077Z,94909.33
2019-05-19T08:09:24.213Z,94909.68
2019-05-19T08:11:50.348Z,94908.97
2019-05-19T08:14:16.551Z,94908.30
2019-05-19T08:16:42.701Z,94912.45
2019-05-19T08:19:09.067Z,94901.94
2019-05-19T08:21:36.319Z,94896.94
2019-05-19T08:24:02.705Z,94898.45
2019-05-19T08:26:28.834Z,94904.24
2019-05-19T08:28:56.147Z,94893.40
2019-05-19T08:31:22.352Z,94901.83
2019-05-19T08:33:48.709Z,94903.02
2019-05-19T08:36:14.959Z,94908.54
2019-05-19T08:38:42.172Z,94904.77
2019-05-19T08:41:08.385Z,94902.00
2019-05-19T08:43:34.611Z,94901.87
2019-05-19T08:46:00.702Z,94907.16
2019-05-19T08:48:27.057Z,94902.70
2019-05-19T08:50:53.153Z,94895.86
2019-05-19T08:53:19.538Z,94902.42
2019-05-19T08:55:45.624Z,94899.84
2019-05-19T08:58:11.907Z,94899.72
2019-05-19T09:00:38.628Z,94895.30
2019-05-19T09:03:05.250Z,94899.18
2019-05-19T09:05:31.574Z,94899.10
2019-05-19T09:07:58.082Z,94897.16
2019-05-19T09:10:24.309Z,94888.98
2019-05-19T09:12:50.426Z,94894.16
2019-05-19T09:15:16.963Z,94896.92
2019-05-19T09:17:43.066Z,94898.41
2019-05-19T09:20:12.819Z,94891.29
2019-05-19T09:22:39.125Z,94895.19
2019-05-19T09:25:06.411Z,94891.30
2019-05-19T09:27:32.552Z,94891.69
2019-05-19T09:29:58.696Z,94890.13
2019-05-19T09:32:24.848Z,94891.52
2019-05-19T09:34:51.082Z,94892.30
2019-05-19T09:37:17.230Z,94892.11
2019-05-19T09:39:43.488Z,94892.44
2019-05-19T09:42:09.620Z,94893.06
2019-05-19T09:44:35.835Z,94887.98
2019-05-19T09:47:01.999Z,94879.95
2019-05-19T09:49:31.655Z,94882.39
2019-05-19T09:51:58.310Z,94880.79
2019-05-19T09:54:24.587Z,94882.38
2019-05-19T09:56:50.860Z,94881.52
2019-05-19T09:59:17.042Z,94876.88
2019-05-19T10:01:43.206Z,94879.47
2019-05-19T10:04:09.386Z,94882.36
2019-05-19T10:06:35.530Z,94881.23
2019-05-19T10:09:04.229Z,94875.73
2019-05-19T10:11:43.169Z,94872.72
2019-05-19T10:14:09.387Z,94873.03
2019-05-19T10:16:35.642Z,94877.96
2019-05-19T10:19:01.897Z,94871.62
2019-05-19T10:21:28.049Z,94875.19
2019-05-19T10:23:54.233Z,94873.54
2019-05-19T10:26:20.330Z,94876.26
2019-05-19T10:28:46.534Z,94873.63
2019-05-19T10:31:12.718Z,94867.56
2019-05-19T10:33:38.961Z,94864.45
2019-05-19T10:36:05.063Z,94868.48
2019-05-19T10:38:31.267Z,94862.70
2019-05-19T10:40:57.425Z,94860.20
2019-05-19T10:43:23.763Z,94861.84
2019-05-19T10:45:51.892Z,94863.47
2019-05-19T10:48:18.088Z,94860.03
2019-05-19T10:50:44.218Z,94856.54
2019-05-19T10:53:10.443Z,94861.38
2019-05-19T10:55:37.156Z,94865.13
2019-05-19T10:58:03.660Z,94863.86
2019-05-19T11:00:29.969Z,94860.55
2019-05-19T11:02:56.158Z,94863.13
2019-05-19T11:05:22.455Z,94860.56
2019-05-19T11:07:48.615Z,94861.59
2019-05-19T11:10:15.912Z,94864.50
2019-05-19T11:12:42.175Z,94854.95
2019-05-19T11:15:09.827Z,94853.02
2019-05-19T11:17:36.161Z,94845.23
2019-05-19T11:20:04.125Z,94852.52
2019-05-19T11:22:30.373Z,94850.80
2019-05-19T11:24:56.763Z,94849.27
2019-05-19T11:27:22.950Z,94850.69
2019-05-19T11:29:49.340Z,94858.16
2019-05-19T11:32:16.357Z,94859.41
2019-05-19T11:34:42.606Z,94855.36
2019-05-19T11:37:08.991Z,94855.26
2019-05-19T11:39:35.200Z,94859.48
2019-05-19T11:42:01.398Z,94855.52
2019-05-19T11:44:27.629Z,94849.61
2019-05-19T11:46:53.804Z,94853.38
2019-05-19T11:49:19.972Z,94852.95
2019-05-19T11:51:46.660Z,94846.57
2019-05-19T11:54:13.165Z,94855.41
2019-05-19T11:56:39.396Z,94854.69
2019-05-19T11:59:05.559Z,94858.19
2019-05-19T12:01:31.749Z,94852.71
2019-05-19T12:03:57.916Z,94850.52
2019-05-19T12:06:38.014Z,94853.47
2019-05-19T12:08:52.109Z,94855.38
2019-05-19T12:11:18.442Z,94850.30
2019-05-19T12:13:44.678Z,94850.75
2019-05-19T12:16:10.832Z,94855.11
2019-05-19T12:18:37.028Z,94854.19
2019-05-19T12:21:03.220Z,94856.50
2019-05-19T12:23:29.485Z,94853.84
2019-05-19T12:25:55.825Z,94860.69
2019-05-19T12:28:21.929Z,94860.55
2019-05-19T12:30:48.151Z,94850.67
2019-05-19T12:33:14.393Z,94843.55
2019-05-19T12:35:40.632Z,94845.70
2019-05-19T12:38:07.965Z,94838.20
2019-05-19T12:40:34.065Z,94852.05
2019-05-19T12:43:00.371Z,94849.83
2019-05-19T12:45:26.464Z,94850.80
2019-05-19T12:47:52.645Z,94857.78
2019-05-19T12:50:19.078Z,94844.27
2019-05-19T12:52:45.256Z,94848.89
2019-05-19T12:55:11.736Z,94848.72
2019-05-19T12:57:37.993Z,94841.30
2019-05-19T13:00:04.922Z,94850.55
2019-05-19T13:02:31.214Z,94854.55
2019-05-19T13:05:04.719Z,94849.89
2019-05-19T13:07:25.430Z,94859.20
2019-05-19T13:09:51.574Z,94851.44
2019-05-19T13:12:17.723Z,94849.86
2019-05-19T13:14:44.912Z,94847.11
2019-05-19T13:17:12.081Z,94846.66
2019-05-19T13:19:38.384Z,94846.66
2019-05-19T13:22:04.607Z,94842.67
2019-05-19T13:24:30.919Z,94841.29
2019-05-19T13:26:57.205Z,94844.12
2019-05-19T13:29:24.478Z,94845.44
2019-05-19T13:31:50.658Z,94839.48
2019-05-19T13:34:16.929Z,94839.48
2019-05-19T13:36:43.026Z,94842.56
2019-05-19T13:39:09.431Z,94836.24
2019-05-19T13:41:35.547Z,94832.05
2019-05-19T13:44:01.857Z,94837.95
2019-05-19T13:46:28.511Z,94824.80
2019-05-19T13:48:54.914Z,94834.03
2019-05-19T13:51:21.022Z,94829.98
2019-05-19T13:53:47.194Z,94827.91
2019-05-19T13:56:13.384Z,94802.66
2019-05-19T13:58:39.588Z,94802.66
2019-05-19T14:01:05.798Z,94819.00
2019-05-19T14:03:32.113Z,94819.00
2019-05-19T14:05:58.217Z,94823.41
2019-05-19T14:08:24.389Z,94824.92
2019-05-19T14:10:50.538Z,94826.27
2019-05-19T14:13:16.748Z,94813.64
2019-05-19T14:15:42.833Z,94810.51
2019-05-19T14:18:09.141Z,94807.12
2019-05-19T14:20:35.238Z,94811.48
2019-05-19T14:23:01.477Z,94806.80
2019-05-19T14:25:27.611Z,94801.67
2019-05-19T14:27:53.877Z,94801.45
2019-05-19T14:30:20.125Z,94798.28
2019-05-19T14:32:46.365Z,94797.73
2019-05-19T14:35:12.718Z,94795.61
2019-05-19T14:37:39.166Z,94795.16
2019-05-19T14:40:06.939Z,94787.40
2019-05-19T14:42:49.885Z,94787.75
2019-05-19T14:45:16.622Z,94783.64
2019-05-19T14:47:43.857Z,94777.69
2019-05-19T14:50:10.404Z,94777.67
2019-05-19T14:52:36.574Z,94772.53
2019-05-19T14:55:03.084Z,94772.98
2019-05-19T14:57:43.563Z,94767.38
2019-05-19T14:59:57.319Z,94763.34
2019-05-19T15:02:23.839Z,94764.20
2019-05-19T15:04:50.027Z,94756.67
2019-05-19T15:07:16.194Z,94762.92
2019-05-19T15:09:42.379Z,94765.36
2019-05-19T15:12:08.511Z,94767.22
2019-05-19T15:14:34.714Z,94768.56
2019-05-19T15:17:00.867Z,94758.63
2019-05-19T15:19:27.182Z,94763.11
2019-05-19T15:21:55.315Z,94758.13
2019-05-19T15:24:21.525Z,94757.15
2019-05-19T15:26:47.678Z,94749.97
2019-05-19T15:29:13.837Z,94748.64
2019-05-19T15:31:39.989Z,94742.41
2019-05-19T15:34:06.246Z,94747.00
2019-05-19T15:36:32.415Z,94748.39
2019-05-19T15:38:58.495Z,94747.66
2019-05-19T15:41:24.836Z,94748.75
2019-05-19T15:43:52.211Z,94749.02
2019-05-19T15:46:18.544Z,94741.50
2019-05-19T15:48:44.737Z,94743.61
2019-05-19T15:51:10.977Z,94748.38
2019-05-19T15:53:37.398Z,94745.40
2019-05-19T15:56:03.534Z,94748.26
2019-05-19T15:58:30.378Z,94753.57
2019-05-19T16:00:56.470Z,94752.56
2019-05-19T16:03:22.863Z,94750.75
2019-05-19T16:05:49.188Z,94745.22
2019-05-19T16:08:15.377Z,94752.31
2019-05-19T16:10:41.948Z,94755.08
2019-05-19T16:13:08.156Z,94746.72
2019-05-19T16:15:34.574Z,94738.94
2019-05-19T16:18:00.730Z,94741.77
2019-05-19T16:20:26.970Z,94736.54
2019-05-19T16:22:53.297Z,94740.50
2019-05-19T16:25:19.598Z,94736.01
2019-05-19T16:27:45.805Z,94728.70
2019-05-19T16:30:12.166Z,94734.91
2019-05-19T16:32:39.286Z,94727.47
2019-05-19T16:35:05.830Z,94728.95
2019-05-19T16:37:33.364Z,94737.89
2019-05-19T16:39:59.669Z,94731.39
2019-05-19T16:42:26.210Z,94737.80
2019-05-19T16:44:52.354Z,94737.78
2019-05-19T16:47:18.828Z,94741.46
2019-05-19T16:49:45.102Z,94740.19
2019-05-19T16:52:11.357Z,94742.45
2019-05-19T16:54:42.509Z,94746.90
2019-05-19T16:57:07.783Z,94744.63
2019-05-19T16:59:33.907Z,94743.90
2019-05-19T17:02:00.073Z,94744.23
2019-05-19T17:04:26.281Z,94748.13
2019-05-19T17:06:53.623Z,94746.86
2019-05-19T17:09:19.856Z,94753.93
2019-05-19T17:11:46.100Z,94748.11
2019-05-19T17:14:12.496Z,94753.00
2019-05-19T17:16:38.746Z,94749.78
2019-05-19T17:19:04.944Z,94752.80
2019-05-19T17:21:31.074Z,94746.61
2019-05-19T17:27:15.443Z,94750.64
2019-05-19T17:29:41.783Z,94748.48
2019-05-19T17:32:08.029Z,94745.01
2019-05-19T17:34:34.260Z,94747.98
2019-05-19T17:37:00.516Z,94755.52
2019-05-19T17:39:26.745Z,94756.62
2019-05-19T17:41:53.026Z,94762.53
2019-05-19T17:44:19.202Z,94763.33
2019-05-19T17:46:45.430Z,94757.91
2019-05-19T17:49:11.526Z,94756.53
2019-05-19T17:51:37.737Z,94758.09
2019-05-19T17:54:04.030Z,94762.66
2019-05-19T17:56:30.833Z,94764.77
2019-05-19T17:58:57.322Z,94769.04
2019-05-19T18:01:23.536Z,94767.40
2019-05-19T18:03:50.481Z,94769.20
2019-05-19T18:06:16.744Z,94765.95
2019-05-19T18:08:42.973Z,94766.73
2019-05-19T18:11:09.219Z,94768.86
2019-05-19T18:13:35.469Z,94765.34
2019-05-19T18:16:01.791Z,94769.84
2019-05-19T18:18:28.136Z,94761.96
2019-05-19T18:20:54.392Z,94761.58
2019-05-19T18:23:20.593Z,94762.36
2019-05-19T18:25:46.682Z,94768.49
2019-05-19T18:28:12.875Z,94764.42
2019-05-19T18:30:38.951Z,94760.59
2019-05-19T18:33:05.151Z,94766.95
2019-05-19T18:35:31.390Z,94765.80
2019-05-19T18:37:57.621Z,94766.78
2019-05-19T18:40:23.880Z,94767.48
2019-05-19T18:42:50.103Z,94771.44
2019-05-19T18:45:16.419Z,94763.81
2019-05-19T18:47:42.624Z,94764.30
2019-05-19T18:50:08.972Z,94768.76
2019-05-19T18:52:35.220Z,94770.02
2019-05-19T18:55:01.819Z,94771.56
2019-05-19T18:57:27.955Z,94771.89
2019-05-19T18:59:54.181Z,94774.95
2019-05-19T19:02:20.641Z,94777.50
2019-05-19T19:04:47.203Z,94774.13
2019-05-19T19:07:13.464Z,94772.66
2019-05-19T19:09:39.669Z,94769.27
2019-05-19T19:12:05.835Z,94773.69
2019-05-19T19:14:31.987Z,94782.94
2019-05-19T19:16:58.201Z,94778.53
2019-05-19T19:19:24.320Z,94780.00
2019-05-19T19:21:50.595Z,94778.02
2019-05-19T19:24:16.723Z,94780.08
2019-05-19T19:26:42.916Z,94776.22
2019-05-19T19:29:09.008Z,94766.29
2019-05-19T19:31:47.759Z,94788.91
2019-05-19T19:34:03.517Z,94768.77
2019-05-19T19:36:29.819Z,94788.95
2019-05-19T19:38:56.038Z,94785.39
2019-05-19T19:41:22.142Z,94779.28
2019-05-19T19:43:48.336Z,94783.27
2019-05-19T19:46:15.594Z,94790.42
2019-05-19T19:48:41.854Z,94786.78
2019-05-19T19:51:08.202Z,94788.08
2019-05-19T19:53:34.464Z,94789.78
2019-05-19T19:56:00.752Z,94787.55
2019-05-19T19:58:27.009Z,94783.98
2019-05-19T20:00:53.239Z,94785.78
2019-05-19T20:03:19.678Z,94784.30
2019-05-19T20:05:46.050Z,94778.61
2019-05-19T20:08:12.423Z,94782.77
2019-05-19T20:10:38.522Z,94787.17
2019-05-19T20:13:04.970Z,94786.97
2019-05-19T20:15:31.127Z,94782.30
2019-05-19T20:17:57.229Z,94778.45
2019-05-19T20:20:24.245Z,94779.11
2019-05-19T20:22:50.724Z,94779.76
2019-05-19T20:25:16.955Z,94777.79
2019-05-19T20:27:43.108Z,94781.39
2019-05-19T20:30:09.631Z,94782.37
2019-05-19T20:32:35.992Z,94782.27
2019-05-19T20:35:03.220Z,94776.58
2019-05-19T20:37:29.522Z,94775.42
2019-05-19T20:39:55.621Z,94766.23
2019-05-19T20:42:21.836Z,94767.52
2019-05-19T20:44:47.934Z,94764.80
2019-05-19T20:47:14.163Z,94766.06
2019-05-19T20:49:40.267Z,94763.85
2019-05-19T20:52:06.486Z,94769.37
2019-05-19T20:54:32.583Z,94770.66
2019-05-19T20:56:59.000Z,94763.11
2019-05-19T20:59:26.284Z,94763.85
2019-05-19T21:01:52.476Z,94766.08
2019-05-19T21:04:18.596Z,94769.97
2019-05-19T21:06:45.657Z,94768.27
2019-05-19T21:09:12.008Z,94763.99
2019-05-19T21:11:38.276Z,94767.63
2019-05-19T21:14:04.645Z,94763.03
2019-05-19T21:16:30.838Z,94764.31
2019-05-19T21:19:02.757Z,94765.00
2019-05-19T21:21:28.952Z,94764.95
2019-05-19T21:23:55.091Z,94766.65
2019-05-19T21:26:21.245Z,94769.26
2019-05-19T21:28:47.377Z,94774.81
2019-05-19T21:31:14.634Z,94766.54
2019-05-19T21:33:40.831Z,94766.08
2019-05-19T21:36:07.054Z,94762.37
2019-05-19T21:38:33.289Z,94766.65
2019-05-19T21:40:59.469Z,94771.98
2019-05-19T21:43:25.679Z,94778.95
2019-05-19T21:45:51.779Z,94771.52
2019-05-19T21:48:19.867Z,94769.17
2019-05-19T21:50:45.973Z,94761.69
2019-05-19T21:53:12.181Z,94762.96
2019-05-19T21:55:38.275Z,94762.88
2019-05-19T21:58:04.598Z,94771.05
2019-05-19T22:00:31.263Z,94769.72
2019-05-19T22:02:57.584Z,94773.77
2019-05-19T22:05:23.667Z,94775.41
2019-05-19T22:07:57.663Z,94772.20
2019-05-19T22:10:23.861Z,94783.97
2019-05-19T22:12:50.049Z,94775.52
2019-05-19T22:15:16.303Z,94765.23
2019-05-19T22:17:42.460Z,94769.64
2019-05-19T22:20:08.794Z,94764.91
2019-05-19T22:22:35.005Z,94764.59
2019-05-19T22:25:01.129Z,94766.70
2019-05-19T22:27:27.326Z,94767.38
2019-05-19T22:29:53.429Z,94770.19
2019-05-19T22:32:19.631Z,94762.20
2019-05-19T22:34:45.717Z,94767.98
2019-05-19T22:37:12.010Z,94771.98
2019-05-19T22:39:38.147Z,94756.30
2019-05-19T22:42:04.554Z,94757.45
2019-05-19T22:44:30.667Z,94748.95
2019-05-19T22:46:56.861Z,94753.05
2019-05-19T22:49:23.005Z,94755.63
2019-05-19T22:51:49.197Z,94760.05
2019-05-19T22:54:15.314Z,94752.92
2019-05-19T22:56:41.523Z,94747.95
2019-05-19T22:59:19.346Z,94746.39
2019-05-19T23:01:50.749Z,94742.89
2019-05-19T23:04:05.114Z,94749.28
2019-05-19T23:06:31.247Z,94760.09
2019-05-19T23:08:57.392Z,94762.13
2019-05-19T23:11:23.802Z,94770.58
2019-05-19T23:13:49.920Z,94774.98
2019-05-19T23:16:16.214Z,94769.00
2019-05-19T23:18:42.319Z,94772.12
2019-05-19T23:21:08.669Z,94782.19
2019-05-19T23:23:34.803Z,94782.95
2019-05-19T23:26:01.054Z,94784.85
2019-05-19T23:28:27.187Z,94781.39
2019-05-19T23:30:53.323Z,94780.86
2019-05-19T23:33:19.486Z,94781.45
2019-05-19T23:35:45.841Z,94779.89
2019-05-19T23:38:12.140Z,94785.73
2019-05-19T23:40:38.414Z,94787.37
2019-05-19T23:43:04.728Z,94791.38
2019-05-19T23:45:30.844Z,94785.16
2019-05-19T23:47:57.056Z,94783.46
2019-05-19T23:50:23.251Z,94786.87
2019-05-19T23:52:49.495Z,94787.91
2019-05-19T23:55:15.945Z,94794.35
2019-05-19T23:57:42.189Z,94786.64
